sensor_id;sensor_type;location;lat;lon;timestamp;P1;durP1;ratioP1;P2;durP2;ratioP2
74383;SDS011;62824;52.994;-3.936;2023-11-22T00:00:45;4.40;;;2.72;;
74383;SDS011;62824;52.994;-3.936;2023-11-22T00:03:10;6.47;;;3.22;;
74383;SDS011;62824;52.994;-3.936;2023-11-22T00:05:36;6.45;;;4.28;;
74383;SDS011;62824;52.994;-3.936;2023-11-22T00:08:02;8.75;;;4.50;;
74383;SDS011;62824;52.994;-3.936;2023-11-22T00:10:28;8.40;;;4.70;;
74383;SDS011;62824;52.994;-3.936;2023-11-22T00:12:53;6.68;;;3.80;;
74383;SDS011;62824;52.994;-3.936;2023-11-22T00:15:19;6.57;;;4.13;;
74383;SDS011;62824;52.994;-3.936;2023-11-22T00:17:45;4.93;;;2.97;;
74383;SDS011;62824;52.994;-3.936;2023-11-22T00:20:11;5.20;;;2.80;;
74383;SDS011;62824;52.994;-3.936;2023-11-22T00:22:37;5.25;;;2.85;;
74383;SDS011;62824;52.994;-3.936;2023-11-22T00:25:03;4.95;;;2.40;;
74383;SDS011;62824;52.994;-3.936;2023-11-22T00:27:29;4.00;;;1.85;;
74383;SDS011;62824;52.994;-3.936;2023-11-22T00:29:56;4.03;;;1.80;;
74383;SDS011;62824;52.994;-3.936;2023-11-22T00:32:23;4.55;;;2.40;;
74383;SDS011;62824;52.994;-3.936;2023-11-22T00:34:49;4.15;;;2.22;;
74383;SDS011;62824;52.994;-3.936;2023-11-22T00:37:15;6.05;;;2.95;;
74383;SDS011;62824;52.994;-3.936;2023-11-22T00:39:41;4.97;;;2.53;;
74383;SDS011;62824;52.994;-3.936;2023-11-22T00:42:07;3.75;;;2.05;;
74383;SDS011;62824;52.994;-3.936;2023-11-22T00:44:33;4.22;;;1.90;;
74383;SDS011;62824;52.994;-3.936;2023-11-22T00:47:01;4.65;;;1.92;;
74383;SDS011;62824;52.994;-3.936;2023-11-22T00:49:27;2.63;;;1.75;;
74383;SDS011;62824;52.994;-3.936;2023-11-22T00:51:53;8.63;;;2.05;;
74383;SDS011;62824;52.994;-3.936;2023-11-22T00:54:19;3.72;;;1.70;;
74383;SDS011;62824;52.994;-3.936;2023-11-22T00:56:45;4.28;;;2.03;;
74383;SDS011;62824;52.994;-3.936;2023-11-22T00:59:11;4.03;;;2.30;;
74383;SDS011;62824;52.994;-3.936;2023-11-22T01:01:37;5.03;;;2.38;;
74383;SDS011;62824;52.994;-3.936;2023-11-22T01:04:06;6.68;;;2.75;;
74383;SDS011;62824;52.994;-3.936;2023-11-22T01:06:32;5.78;;;2.65;;
74383;SDS011;62824;52.994;-3.936;2023-11-22T01:08:58;8.40;;;3.08;;
74383;SDS011;62824;52.994;-3.936;2023-11-22T01:11:24;14.45;;;4.82;;
74383;SDS011;62824;52.994;-3.936;2023-11-22T01:13:51;7.13;;;3.22;;
74383;SDS011;62824;52.994;-3.936;2023-11-22T01:16:17;4.30;;;2.50;;
74383;SDS011;62824;52.994;-3.936;2023-11-22T01:18:43;6.85;;;2.28;;
74383;SDS011;62824;52.994;-3.936;2023-11-22T01:21:11;4.47;;;2.20;;
74383;SDS011;62824;52.994;-3.936;2023-11-22T01:23:37;2.72;;;1.58;;
74383;SDS011;62824;52.994;-3.936;2023-11-22T01:26:03;4.05;;;1.90;;
74383;SDS011;62824;52.994;-3.936;2023-11-22T01:28:29;2.92;;;1.63;;
74383;SDS011;62824;52.994;-3.936;2023-11-22T01:30:59;3.72;;;1.58;;
74383;SDS011;62824;52.994;-3.936;2023-11-22T01:33:26;3.35;;;1.60;;
74383;SDS011;62824;52.994;-3.936;2023-11-22T01:35:52;2.35;;;1.30;;
74383;SDS011;62824;52.994;-3.936;2023-11-22T01:38:18;1.75;;;1.38;;
74383;SDS011;62824;52.994;-3.936;2023-11-22T01:40:44;2.42;;;1.40;;
74383;SDS011;62824;52.994;-3.936;2023-11-22T01:43:14;2.15;;;1.23;;
74383;SDS011;62824;52.994;-3.936;2023-11-22T01:45:40;2.22;;;1.17;;
74383;SDS011;62824;52.994;-3.936;2023-11-22T01:48:06;1.98;;;1.13;;
74383;SDS011;62824;52.994;-3.936;2023-11-22T01:50:36;2.45;;;1.35;;
74383;SDS011;62824;52.994;-3.936;2023-11-22T01:53:05;1.65;;;0.90;;
74383;SDS011;62824;52.994;-3.936;2023-11-22T01:55:32;0.85;;;0.73;;
74383;SDS011;62824;52.994;-3.936;2023-11-22T01:57:59;0.55;;;0.52;;
74383;SDS011;62824;52.994;-3.936;2023-11-22T02:00:27;1.00;;;0.63;;
74383;SDS011;62824;52.994;-3.936;2023-11-22T02:03:00;0.63;;;0.40;;
74383;SDS011;62824;52.994;-3.936;2023-11-22T02:05:27;1.38;;;0.80;;
74383;SDS011;62824;52.994;-3.936;2023-11-22T02:07:53;0.80;;;0.70;;
74383;SDS011;62824;52.994;-3.936;2023-11-22T02:10:19;0.90;;;0.50;;
74383;SDS011;62824;52.994;-3.936;2023-11-22T02:12:45;4.28;;;0.70;;
74383;SDS011;62824;52.994;-3.936;2023-11-22T02:15:11;0.60;;;0.55;;
74383;SDS011;62824;52.994;-3.936;2023-11-22T02:17:37;0.88;;;0.82;;
74383;SDS011;62824;52.994;-3.936;2023-11-22T02:20:04;4.78;;;0.80;;
74383;SDS011;62824;52.994;-3.936;2023-11-22T02:22:34;2.97;;;0.82;;
74383;SDS011;62824;52.994;-3.936;2023-11-22T02:25:07;2.75;;;0.73;;
74383;SDS011;62824;52.994;-3.936;2023-11-22T02:27:33;1.05;;;0.95;;
74383;SDS011;62824;52.994;-3.936;2023-11-22T02:29:58;1.73;;;1.15;;
74383;SDS011;62824;52.994;-3.936;2023-11-22T02:32:24;2.08;;;0.95;;
74383;SDS011;62824;52.994;-3.936;2023-11-22T02:34:52;1.65;;;1.20;;
74383;SDS011;62824;52.994;-3.936;2023-11-22T02:37:17;3.03;;;1.02;;
74383;SDS011;62824;52.994;-3.936;2023-11-22T02:39:55;1.00;;;0.90;;
74383;SDS011;62824;52.994;-3.936;2023-11-22T02:42:45;3.30;;;0.90;;
74383;SDS011;62824;52.994;-3.936;2023-11-22T02:45:15;2.13;;;1.10;;
74383;SDS011;62824;52.994;-3.936;2023-11-22T02:47:42;2.67;;;1.05;;
74383;SDS011;62824;52.994;-3.936;2023-11-22T02:50:12;2.50;;;0.93;;
74383;SDS011;62824;52.994;-3.936;2023-11-22T02:52:39;2.13;;;1.27;;
74383;SDS011;62824;52.994;-3.936;2023-11-22T02:55:05;2.90;;;1.30;;
74383;SDS011;62824;52.994;-3.936;2023-11-22T02:57:31;1.50;;;1.20;;
74383;SDS011;62824;52.994;-3.936;2023-11-22T02:59:57;0.68;;;0.68;;
74383;SDS011;62824;52.994;-3.936;2023-11-22T03:02:23;1.85;;;1.00;;
74383;SDS011;62824;52.994;-3.936;2023-11-22T03:04:49;2.83;;;1.02;;
74383;SDS011;62824;52.994;-3.936;2023-11-22T03:07:15;3.10;;;1.45;;
74383;SDS011;62824;52.994;-3.936;2023-11-22T03:09:42;5.70;;;1.35;;
74383;SDS011;62824;52.994;-3.936;2023-11-22T03:12:09;5.47;;;1.58;;
74383;SDS011;62824;52.994;-3.936;2023-11-22T03:14:38;4.10;;;1.42;;
74383;SDS011;62824;52.994;-3.936;2023-11-22T03:17:04;2.20;;;1.52;;
74383;SDS011;62824;52.994;-3.936;2023-11-22T03:19:31;2.53;;;1.08;;
74383;SDS011;62824;52.994;-3.936;2023-11-22T03:21:59;1.42;;;1.10;;
74383;SDS011;62824;52.994;-3.936;2023-11-22T03:24:28;3.20;;;1.20;;
74383;SDS011;62824;52.994;-3.936;2023-11-22T03:26:57;5.13;;;1.08;;
74383;SDS011;62824;52.994;-3.936;2023-11-22T03:29:24;2.90;;;1.23;;
74383;SDS011;62824;52.994;-3.936;2023-11-22T03:31:51;2.72;;;1.13;;
74383;SDS011;62824;52.994;-3.936;2023-11-22T03:34:18;4.25;;;1.30;;
74383;SDS011;62824;52.994;-3.936;2023-11-22T03:36:44;2.17;;;1.23;;
74383;SDS011;62824;52.994;-3.936;2023-11-22T03:39:10;3.33;;;1.25;;
74383;SDS011;62824;52.994;-3.936;2023-11-22T03:41:38;1.63;;;0.95;;
74383;SDS011;62824;52.994;-3.936;2023-11-22T03:44:05;1.48;;;0.90;;
74383;SDS011;62824;52.994;-3.936;2023-11-22T03:46:34;1.23;;;0.80;;
74383;SDS011;62824;52.994;-3.936;2023-11-22T03:49:01;1.90;;;1.10;;
74383;SDS011;62824;52.994;-3.936;2023-11-22T03:51:31;2.25;;;0.80;;
74383;SDS011;62824;52.994;-3.936;2023-11-22T03:53:58;4.30;;;1.23;;
74383;SDS011;62824;52.994;-3.936;2023-11-22T03:56:24;1.95;;;1.20;;
74383;SDS011;62824;52.994;-3.936;2023-11-22T03:58:50;1.20;;;1.10;;
74383;SDS011;62824;52.994;-3.936;2023-11-22T04:01:16;2.28;;;1.23;;
74383;SDS011;62824;52.994;-3.936;2023-11-22T04:03:43;2.00;;;1.15;;
74383;SDS011;62824;52.994;-3.936;2023-11-22T04:06:09;7.53;;;1.42;;
74383;SDS011;62824;52.994;-3.936;2023-11-22T04:08:35;5.75;;;1.48;;
74383;SDS011;62824;52.994;-3.936;2023-11-22T04:11:03;2.75;;;1.10;;
74383;SDS011;62824;52.994;-3.936;2023-11-22T04:13:29;4.93;;;1.58;;
74383;SDS011;62824;52.994;-3.936;2023-11-22T04:15:55;1.95;;;1.08;;
74383;SDS011;62824;52.994;-3.936;2023-11-22T04:18:21;2.10;;;1.08;;
74383;SDS011;62824;52.994;-3.936;2023-11-22T04:20:47;2.35;;;0.90;;
74383;SDS011;62824;52.994;-3.936;2023-11-22T04:23:13;2.25;;;0.93;;
74383;SDS011;62824;52.994;-3.936;2023-11-22T04:25:40;3.42;;;1.00;;
74383;SDS011;62824;52.994;-3.936;2023-11-22T04:28:07;0.93;;;0.70;;
74383;SDS011;62824;52.994;-3.936;2023-11-22T04:30:35;3.10;;;0.85;;
74383;SDS011;62824;52.994;-3.936;2023-11-22T04:33:01;1.10;;;0.80;;
74383;SDS011;62824;52.994;-3.936;2023-11-22T04:35:27;1.90;;;1.10;;
74383;SDS011;62824;52.994;-3.936;2023-11-22T04:37:53;1.50;;;0.88;;
74383;SDS011;62824;52.994;-3.936;2023-11-22T04:40:23;2.35;;;0.77;;
74383;SDS011;62824;52.994;-3.936;2023-11-22T04:42:49;1.15;;;0.63;;
74383;SDS011;62824;52.994;-3.936;2023-11-22T04:45:14;2.72;;;1.08;;
74383;SDS011;62824;52.994;-3.936;2023-11-22T04:47:40;4.57;;;1.20;;
74383;SDS011;62824;52.994;-3.936;2023-11-22T04:50:06;3.35;;;1.30;;
74383;SDS011;62824;52.994;-3.936;2023-11-22T04:52:32;2.40;;;1.02;;
74383;SDS011;62824;52.994;-3.936;2023-11-22T04:54:58;3.35;;;1.10;;
74383;SDS011;62824;52.994;-3.936;2023-11-22T04:57:24;3.25;;;0.80;;
74383;SDS011;62824;52.994;-3.936;2023-11-22T04:59:50;1.35;;;0.90;;
74383;SDS011;62824;52.994;-3.936;2023-11-22T05:02:16;3.45;;;1.10;;
74383;SDS011;62824;52.994;-3.936;2023-11-22T05:04:41;7.53;;;1.10;;
74383;SDS011;62824;52.994;-3.936;2023-11-22T05:07:07;6.60;;;0.95;;
74383;SDS011;62824;52.994;-3.936;2023-11-22T05:09:34;2.65;;;0.90;;
74383;SDS011;62824;52.994;-3.936;2023-11-22T05:12:00;3.35;;;1.10;;
74383;SDS011;62824;52.994;-3.936;2023-11-22T05:14:25;4.80;;;0.80;;
74383;SDS011;62824;52.994;-3.936;2023-11-22T05:16:51;4.93;;;1.10;;
74383;SDS011;62824;52.994;-3.936;2023-11-22T05:19:17;2.15;;;0.98;;
74383;SDS011;62824;52.994;-3.936;2023-11-22T05:21:44;7.57;;;0.88;;
74383;SDS011;62824;52.994;-3.936;2023-11-22T05:24:09;3.08;;;0.73;;
74383;SDS011;62824;52.994;-3.936;2023-11-22T05:26:35;2.45;;;1.05;;
74383;SDS011;62824;52.994;-3.936;2023-11-22T05:29:01;4.93;;;1.00;;
74383;SDS011;62824;52.994;-3.936;2023-11-22T05:31:29;2.20;;;0.57;;
74383;SDS011;62824;52.994;-3.936;2023-11-22T05:33:55;4.70;;;1.10;;
74383;SDS011;62824;52.994;-3.936;2023-11-22T05:36:21;1.75;;;0.50;;
74383;SDS011;62824;52.994;-3.936;2023-11-22T05:38:46;1.55;;;0.73;;
74383;SDS011;62824;52.994;-3.936;2023-11-22T05:41:12;2.40;;;0.90;;
74383;SDS011;62824;52.994;-3.936;2023-11-22T05:43:38;3.80;;;0.82;;
74383;SDS011;62824;52.994;-3.936;2023-11-22T05:46:04;1.63;;;0.80;;
74383;SDS011;62824;52.994;-3.936;2023-11-22T05:48:30;1.98;;;0.85;;
74383;SDS011;62824;52.994;-3.936;2023-11-22T05:50:55;8.50;;;1.27;;
74383;SDS011;62824;52.994;-3.936;2023-11-22T05:53:21;1.02;;;0.95;;
74383;SDS011;62824;52.994;-3.936;2023-11-22T05:55:47;2.63;;;0.70;;
74383;SDS011;62824;52.994;-3.936;2023-11-22T05:58:14;3.10;;;1.48;;
74383;SDS011;62824;52.994;-3.936;2023-11-22T06:00:46;5.43;;;1.10;;
74383;SDS011;62824;52.994;-3.936;2023-11-22T06:03:12;3.50;;;0.80;;
74383;SDS011;62824;52.994;-3.936;2023-11-22T06:05:39;2.65;;;0.98;;
74383;SDS011;62824;52.994;-3.936;2023-11-22T06:08:05;4.40;;;1.00;;
74383;SDS011;62824;52.994;-3.936;2023-11-22T06:10:31;6.20;;;1.30;;
74383;SDS011;62824;52.994;-3.936;2023-11-22T06:12:57;6.07;;;1.33;;
74383;SDS011;62824;52.994;-3.936;2023-11-22T06:15:23;2.47;;;1.10;;
74383;SDS011;62824;52.994;-3.936;2023-11-22T06:17:49;7.35;;;1.50;;
74383;SDS011;62824;52.994;-3.936;2023-11-22T06:20:15;5.85;;;1.20;;
74383;SDS011;62824;52.994;-3.936;2023-11-22T06:22:41;3.38;;;2.20;;
74383;SDS011;62824;52.994;-3.936;2023-11-22T06:25:13;4.75;;;1.30;;
74383;SDS011;62824;52.994;-3.936;2023-11-22T06:27:40;5.03;;;1.52;;
74383;SDS011;62824;52.994;-3.936;2023-11-22T06:30:06;3.28;;;1.30;;
74383;SDS011;62824;52.994;-3.936;2023-11-22T06:32:34;6.47;;;1.40;;
74383;SDS011;62824;52.994;-3.936;2023-11-22T06:35:00;5.30;;;1.05;;
74383;SDS011;62824;52.994;-3.936;2023-11-22T06:37:26;3.72;;;1.83;;
74383;SDS011;62824;52.994;-3.936;2023-11-22T06:39:52;4.93;;;1.20;;
74383;SDS011;62824;52.994;-3.936;2023-11-22T06:42:18;3.97;;;1.40;;
74383;SDS011;62824;52.994;-3.936;2023-11-22T06:44:47;3.83;;;1.55;;
74383;SDS011;62824;52.994;-3.936;2023-11-22T06:47:13;5.13;;;1.48;;
74383;SDS011;62824;52.994;-3.936;2023-11-22T06:49:39;2.30;;;1.25;;
74383;SDS011;62824;52.994;-3.936;2023-11-22T06:52:05;3.13;;;1.27;;
74383;SDS011;62824;52.994;-3.936;2023-11-22T06:54:31;4.35;;;1.65;;
74383;SDS011;62824;52.994;-3.936;2023-11-22T06:56:57;4.80;;;1.25;;
74383;SDS011;62824;52.994;-3.936;2023-11-22T06:59:22;0.95;;;0.88;;
74383;SDS011;62824;52.994;-3.936;2023-11-22T07:01:48;3.15;;;1.60;;
74383;SDS011;62824;52.994;-3.936;2023-11-22T07:04:14;4.63;;;1.25;;
74383;SDS011;62824;52.994;-3.936;2023-11-22T07:06:40;3.50;;;1.05;;
74383;SDS011;62824;52.994;-3.936;2023-11-22T07:09:07;4.05;;;1.00;;
74383;SDS011;62824;52.994;-3.936;2023-11-22T07:11:36;2.75;;;0.88;;
74383;SDS011;62824;52.994;-3.936;2023-11-22T07:14:02;2.33;;;0.98;;
74383;SDS011;62824;52.994;-3.936;2023-11-22T07:16:34;3.85;;;1.00;;
74383;SDS011;62824;52.994;-3.936;2023-11-22T07:19:00;3.40;;;1.30;;
74383;SDS011;62824;52.994;-3.936;2023-11-22T07:21:32;2.38;;;1.20;;
74383;SDS011;62824;52.994;-3.936;2023-11-22T07:23:58;3.00;;;0.70;;
74383;SDS011;62824;52.994;-3.936;2023-11-22T07:26:24;3.38;;;1.38;;
74383;SDS011;62824;52.994;-3.936;2023-11-22T07:28:53;2.95;;;1.10;;
74383;SDS011;62824;52.994;-3.936;2023-11-22T07:31:19;3.53;;;1.30;;
74383;SDS011;62824;52.994;-3.936;2023-11-22T07:33:46;5.60;;;1.42;;
74383;SDS011;62824;52.994;-3.936;2023-11-22T07:36:12;4.20;;;1.05;;
74383;SDS011;62824;52.994;-3.936;2023-11-22T07:38:40;2.15;;;1.10;;
74383;SDS011;62824;52.994;-3.936;2023-11-22T07:41:07;3.42;;;1.55;;
74383;SDS011;62824;52.994;-3.936;2023-11-22T07:43:33;4.53;;;1.10;;
74383;SDS011;62824;52.994;-3.936;2023-11-22T07:45:59;3.50;;;1.00;;
74383;SDS011;62824;52.994;-3.936;2023-11-22T07:48:26;2.13;;;1.20;;
74383;SDS011;62824;52.994;-3.936;2023-11-22T07:50:53;3.83;;;1.20;;
74383;SDS011;62824;52.994;-3.936;2023-11-22T07:53:19;5.07;;;1.90;;
74383;SDS011;62824;52.994;-3.936;2023-11-22T07:55:45;1.92;;;1.20;;
74383;SDS011;62824;52.994;-3.936;2023-11-22T07:58:12;1.42;;;0.88;;
74383;SDS011;62824;52.994;-3.936;2023-11-22T08:00:37;1.60;;;1.23;;
74383;SDS011;62824;52.994;-3.936;2023-11-22T08:03:03;1.23;;;1.00;;
74383;SDS011;62824;52.994;-3.936;2023-11-22T08:05:31;2.88;;;1.20;;
74383;SDS011;62824;52.994;-3.936;2023-11-22T08:08:04;5.00;;;1.77;;
74383;SDS011;62824;52.994;-3.936;2023-11-22T08:10:34;2.53;;;1.40;;
74383;SDS011;62824;52.994;-3.936;2023-11-22T08:13:00;1.77;;;1.17;;
74383;SDS011;62824;52.994;-3.936;2023-11-22T08:15:28;3.33;;;1.30;;
74383;SDS011;62824;52.994;-3.936;2023-11-22T08:17:58;4.72;;;1.40;;
74383;SDS011;62824;52.994;-3.936;2023-11-22T08:20:25;2.75;;;1.10;;
74383;SDS011;62824;52.994;-3.936;2023-11-22T08:22:51;1.63;;;1.17;;
74383;SDS011;62824;52.994;-3.936;2023-11-22T08:25:17;2.63;;;1.70;;
74383;SDS011;62824;52.994;-3.936;2023-11-22T08:27:43;3.88;;;1.70;;
74383;SDS011;62824;52.994;-3.936;2023-11-22T08:30:09;6.00;;;1.67;;
74383;SDS011;62824;52.994;-3.936;2023-11-22T08:32:41;4.78;;;1.70;;
74383;SDS011;62824;52.994;-3.936;2023-11-22T08:35:10;1.17;;;1.08;;
74383;SDS011;62824;52.994;-3.936;2023-11-22T08:37:38;3.30;;;1.65;;
74383;SDS011;62824;52.994;-3.936;2023-11-22T08:40:08;2.72;;;1.52;;
74383;SDS011;62824;52.994;-3.936;2023-11-22T08:42:39;2.10;;;0.95;;
74383;SDS011;62824;52.994;-3.936;2023-11-22T08:45:06;3.08;;;1.30;;
74383;SDS011;62824;52.994;-3.936;2023-11-22T08:47:33;4.22;;;1.40;;
74383;SDS011;62824;52.994;-3.936;2023-11-22T08:49:59;2.83;;;1.90;;
74383;SDS011;62824;52.994;-3.936;2023-11-22T08:52:28;2.40;;;1.10;;
74383;SDS011;62824;52.994;-3.936;2023-11-22T08:54:56;1.98;;;1.20;;
74383;SDS011;62824;52.994;-3.936;2023-11-22T08:57:21;1.50;;;0.98;;
74383;SDS011;62824;52.994;-3.936;2023-11-22T08:59:47;1.50;;;1.10;;
74383;SDS011;62824;52.994;-3.936;2023-11-22T09:02:14;2.08;;;1.33;;
74383;SDS011;62824;52.994;-3.936;2023-11-22T09:04:40;1.75;;;1.33;;
74383;SDS011;62824;52.994;-3.936;2023-11-22T09:07:07;2.72;;;1.30;;
74383;SDS011;62824;52.994;-3.936;2023-11-22T09:09:35;3.25;;;1.33;;
74383;SDS011;62824;52.994;-3.936;2023-11-22T09:12:01;4.45;;;1.20;;
74383;SDS011;62824;52.994;-3.936;2023-11-22T09:14:27;2.25;;;1.15;;
74383;SDS011;62824;52.994;-3.936;2023-11-22T09:16:54;1.90;;;0.98;;
74383;SDS011;62824;52.994;-3.936;2023-11-22T09:19:23;2.67;;;1.38;;
74383;SDS011;62824;52.994;-3.936;2023-11-22T09:21:50;1.58;;;0.80;;
74383;SDS011;62824;52.994;-3.936;2023-11-22T09:24:18;2.80;;;1.15;;
74383;SDS011;62824;52.994;-3.936;2023-11-22T09:26:46;3.95;;;0.88;;
74383;SDS011;62824;52.994;-3.936;2023-11-22T09:29:12;3.33;;;1.23;;
74383;SDS011;62824;52.994;-3.936;2023-11-22T09:31:39;2.53;;;0.90;;
74383;SDS011;62824;52.994;-3.936;2023-11-22T09:34:07;1.35;;;0.85;;
74383;SDS011;62824;52.994;-3.936;2023-11-22T09:36:34;2.15;;;1.25;;
74383;SDS011;62824;52.994;-3.936;2023-11-22T09:39:00;3.80;;;0.90;;
74383;SDS011;62824;52.994;-3.936;2023-11-22T09:41:28;2.33;;;0.98;;
74383;SDS011;62824;52.994;-3.936;2023-11-22T09:43:54;2.25;;;1.10;;
74383;SDS011;62824;52.994;-3.936;2023-11-22T09:46:23;2.17;;;0.77;;
74383;SDS011;62824;52.994;-3.936;2023-11-22T09:48:50;2.53;;;1.50;;
74383;SDS011;62824;52.994;-3.936;2023-11-22T09:51:23;4.35;;;0.90;;
74383;SDS011;62824;52.994;-3.936;2023-11-22T09:53:52;1.90;;;0.90;;
74383;SDS011;62824;52.994;-3.936;2023-11-22T09:56:22;1.25;;;1.10;;
74383;SDS011;62824;52.994;-3.936;2023-11-22T09:58:51;1.98;;;1.25;;
74383;SDS011;62824;52.994;-3.936;2023-11-22T10:01:19;2.17;;;1.08;;
74383;SDS011;62824;52.994;-3.936;2023-11-22T10:03:47;5.53;;;1.90;;
74383;SDS011;62824;52.994;-3.936;2023-11-22T10:06:13;2.67;;;1.52;;
74383;SDS011;62824;52.994;-3.936;2023-11-22T10:08:40;6.65;;;1.40;;
74383;SDS011;62824;52.994;-3.936;2023-11-22T10:11:06;3.63;;;1.20;;
74383;SDS011;62824;52.994;-3.936;2023-11-22T10:13:32;2.53;;;1.08;;
74383;SDS011;62824;52.994;-3.936;2023-11-22T10:16:09;1.23;;;1.13;;
74383;SDS011;62824;52.994;-3.936;2023-11-22T10:18:41;2.13;;;1.13;;
74383;SDS011;62824;52.994;-3.936;2023-11-22T10:21:18;1.27;;;1.00;;
74383;SDS011;62824;52.994;-3.936;2023-11-22T10:23:49;3.28;;;0.98;;
74383;SDS011;62824;52.994;-3.936;2023-11-22T10:26:19;0.80;;;0.80;;
74383;SDS011;62824;52.994;-3.936;2023-11-22T10:28:45;1.48;;;1.00;;
74383;SDS011;62824;52.994;-3.936;2023-11-22T10:31:11;1.00;;;0.82;;
74383;SDS011;62824;52.994;-3.936;2023-11-22T10:33:40;4.85;;;0.90;;
74383;SDS011;62824;52.994;-3.936;2023-11-22T10:36:07;1.58;;;1.20;;
74383;SDS011;62824;52.994;-3.936;2023-11-22T10:38:34;1.70;;;1.00;;
74383;SDS011;62824;52.994;-3.936;2023-11-22T10:41:03;2.60;;;1.42;;
74383;SDS011;62824;52.994;-3.936;2023-11-22T10:43:30;6.35;;;1.45;;
74383;SDS011;62824;52.994;-3.936;2023-11-22T10:46:00;2.78;;;2.03;;
74383;SDS011;62824;52.994;-3.936;2023-11-22T10:48:27;2.17;;;1.10;;
74383;SDS011;62824;52.994;-3.936;2023-11-22T10:50:55;2.30;;;1.20;;
74383;SDS011;62824;52.994;-3.936;2023-11-22T10:53:28;2.13;;;1.05;;
74383;SDS011;62824;52.994;-3.936;2023-11-22T10:56:02;2.70;;;0.98;;
74383;SDS011;62824;52.994;-3.936;2023-11-22T10:58:57;6.68;;;1.30;;
74383;SDS011;62824;52.994;-3.936;2023-11-22T11:01:24;3.03;;;1.02;;
74383;SDS011;62824;52.994;-3.936;2023-11-22T11:04:02;1.10;;;0.93;;
74383;SDS011;62824;52.994;-3.936;2023-11-22T11:06:35;4.13;;;0.90;;
74383;SDS011;62824;52.994;-3.936;2023-11-22T11:09:02;1.02;;;0.90;;
74383;SDS011;62824;52.994;-3.936;2023-11-22T11:11:40;5.10;;;1.30;;
74383;SDS011;62824;52.994;-3.936;2023-11-22T11:14:07;3.42;;;1.25;;
74383;SDS011;62824;52.994;-3.936;2023-11-22T11:16:36;2.90;;;1.17;;
74383;SDS011;62824;52.994;-3.936;2023-11-22T11:19:06;1.40;;;1.13;;
74383;SDS011;62824;52.994;-3.936;2023-11-22T11:21:35;2.08;;;1.23;;
74383;SDS011;62824;52.994;-3.936;2023-11-22T11:24:00;2.90;;;1.10;;
74383;SDS011;62824;52.994;-3.936;2023-11-22T11:26:31;1.80;;;1.50;;
74383;SDS011;62824;52.994;-3.936;2023-11-22T11:28:59;3.40;;;1.80;;
74383;SDS011;62824;52.994;-3.936;2023-11-22T11:31:30;2.53;;;1.50;;
74383;SDS011;62824;52.994;-3.936;2023-11-22T11:34:07;1.30;;;1.20;;
74383;SDS011;62824;52.994;-3.936;2023-11-22T11:36:36;1.40;;;1.15;;
74383;SDS011;62824;52.994;-3.936;2023-11-22T11:39:06;2.38;;;1.23;;
74383;SDS011;62824;52.994;-3.936;2023-11-22T11:41:40;2.10;;;1.20;;
74383;SDS011;62824;52.994;-3.936;2023-11-22T11:44:07;1.10;;;1.00;;
74383;SDS011;62824;52.994;-3.936;2023-11-22T11:46:34;1.40;;;0.88;;
74383;SDS011;62824;52.994;-3.936;2023-11-22T11:49:03;1.60;;;1.38;;
74383;SDS011;62824;52.994;-3.936;2023-11-22T11:51:33;4.28;;;1.60;;
74383;SDS011;62824;52.994;-3.936;2023-11-22T11:53:59;3.95;;;1.17;;
74383;SDS011;62824;52.994;-3.936;2023-11-22T11:56:25;2.35;;;1.48;;
74383;SDS011;62824;52.994;-3.936;2023-11-22T11:58:51;4.35;;;1.60;;
74383;SDS011;62824;52.994;-3.936;2023-11-22T12:01:23;2.97;;;1.42;;
74383;SDS011;62824;52.994;-3.936;2023-11-22T12:03:52;5.60;;;1.10;;
74383;SDS011;62824;52.994;-3.936;2023-11-22T12:06:18;4.25;;;1.10;;
74383;SDS011;62824;52.994;-3.936;2023-11-22T12:08:44;5.35;;;1.10;;
74383;SDS011;62824;52.994;-3.936;2023-11-22T12:11:12;3.70;;;1.10;;
74383;SDS011;62824;52.994;-3.936;2023-11-22T12:13:39;1.33;;;0.95;;
74383;SDS011;62824;52.994;-3.936;2023-11-22T12:16:08;1.63;;;0.75;;
74383;SDS011;62824;52.994;-3.936;2023-11-22T12:18:42;2.10;;;0.90;;
74383;SDS011;62824;52.994;-3.936;2023-11-22T12:21:09;2.10;;;0.93;;
74383;SDS011;62824;52.994;-3.936;2023-11-22T12:23:39;1.02;;;0.75;;
74383;SDS011;62824;52.994;-3.936;2023-11-22T12:26:09;2.65;;;1.08;;
74383;SDS011;62824;52.994;-3.936;2023-11-22T12:28:40;2.58;;;0.90;;
74383;SDS011;62824;52.994;-3.936;2023-11-22T12:31:09;1.05;;;0.80;;
74383;SDS011;62824;52.994;-3.936;2023-11-22T12:33:36;1.92;;;0.70;;
74383;SDS011;62824;52.994;-3.936;2023-11-22T12:36:03;1.45;;;0.77;;
74383;SDS011;62824;52.994;-3.936;2023-11-22T12:38:29;2.80;;;0.80;;
74383;SDS011;62824;52.994;-3.936;2023-11-22T12:40:58;1.27;;;0.55;;
74383;SDS011;62824;52.994;-3.936;2023-11-22T12:43:24;0.55;;;0.50;;
74383;SDS011;62824;52.994;-3.936;2023-11-22T12:46:03;1.50;;;0.80;;
74383;SDS011;62824;52.994;-3.936;2023-11-22T12:48:33;1.73;;;0.88;;
74383;SDS011;62824;52.994;-3.936;2023-11-22T12:51:00;1.27;;;0.90;;
74383;SDS011;62824;52.994;-3.936;2023-11-22T12:53:26;0.60;;;0.60;;
74383;SDS011;62824;52.994;-3.936;2023-11-22T12:55:56;1.25;;;0.90;;
74383;SDS011;62824;52.994;-3.936;2023-11-22T12:58:22;3.67;;;1.05;;
74383;SDS011;62824;52.994;-3.936;2023-11-22T13:00:49;0.88;;;0.70;;
74383;SDS011;62824;52.994;-3.936;2023-11-22T13:03:23;2.05;;;0.80;;
74383;SDS011;62824;52.994;-3.936;2023-11-22T13:05:49;2.08;;;0.80;;
74383;SDS011;62824;52.994;-3.936;2023-11-22T13:08:17;2.78;;;0.65;;
74383;SDS011;62824;52.994;-3.936;2023-11-22T13:10:46;0.95;;;0.80;;
74383;SDS011;62824;52.994;-3.936;2023-11-22T13:13:19;0.90;;;0.80;;
74383;SDS011;62824;52.994;-3.936;2023-11-22T13:15:45;2.75;;;1.00;;
74383;SDS011;62824;52.994;-3.936;2023-11-22T13:18:11;2.58;;;1.02;;
74383;SDS011;62824;52.994;-3.936;2023-11-22T13:20:37;2.20;;;1.02;;
74383;SDS011;62824;52.994;-3.936;2023-11-22T13:23:05;2.08;;;0.68;;
74383;SDS011;62824;52.994;-3.936;2023-11-22T13:25:32;1.40;;;0.50;;
74383;SDS011;62824;52.994;-3.936;2023-11-22T13:27:58;1.70;;;0.50;;
74383;SDS011;62824;52.994;-3.936;2023-11-22T13:30:25;1.95;;;0.50;;
74383;SDS011;62824;52.994;-3.936;2023-11-22T13:32:54;0.50;;;0.50;;
74383;SDS011;62824;52.994;-3.936;2023-11-22T13:35:26;1.85;;;0.60;;
74383;SDS011;62824;52.994;-3.936;2023-11-22T13:40:27;1.77;;;0.60;;
74383;SDS011;62824;52.994;-3.936;2023-11-22T13:42:55;1.38;;;0.50;;
74383;SDS011;62824;52.994;-3.936;2023-11-22T13:45:22;1.25;;;0.82;;
74383;SDS011;62824;52.994;-3.936;2023-11-22T13:47:49;1.17;;;0.70;;
74383;SDS011;62824;52.994;-3.936;2023-11-22T13:50:17;2.63;;;0.80;;
74383;SDS011;62824;52.994;-3.936;2023-11-22T13:52:50;3.10;;;0.80;;
74383;SDS011;62824;52.994;-3.936;2023-11-22T13:55:17;1.00;;;0.80;;
74383;SDS011;62824;52.994;-3.936;2023-11-22T13:57:48;3.30;;;1.00;;
74383;SDS011;62824;52.994;-3.936;2023-11-22T14:00:18;1.17;;;0.60;;
74383;SDS011;62824;52.994;-3.936;2023-11-22T14:02:51;0.60;;;0.52;;
74383;SDS011;62824;52.994;-3.936;2023-11-22T14:05:21;1.88;;;0.95;;
74383;SDS011;62824;52.994;-3.936;2023-11-22T14:07:47;1.00;;;0.60;;
74383;SDS011;62824;52.994;-3.936;2023-11-22T14:10:14;1.85;;;0.73;;
74383;SDS011;62824;52.994;-3.936;2023-11-22T14:12:41;2.90;;;1.00;;
74383;SDS011;62824;52.994;-3.936;2023-11-22T14:15:11;2.90;;;0.95;;
74383;SDS011;62824;52.994;-3.936;2023-11-22T14:17:37;3.45;;;0.82;;
74383;SDS011;62824;52.994;-3.936;2023-11-22T14:20:05;5.70;;;2.72;;
74383;SDS011;62824;52.994;-3.936;2023-11-22T14:22:34;3.22;;;1.10;;
74383;SDS011;62824;52.994;-3.936;2023-11-22T14:25:00;1.60;;;0.63;;
74383;SDS011;62824;52.994;-3.936;2023-11-22T14:27:26;2.25;;;0.75;;
74383;SDS011;62824;52.994;-3.936;2023-11-22T14:29:54;1.55;;;0.68;;
74383;SDS011;62824;52.994;-3.936;2023-11-22T14:32:20;0.73;;;0.50;;
74383;SDS011;62824;52.994;-3.936;2023-11-22T14:34:46;1.30;;;0.68;;
74383;SDS011;62824;52.994;-3.936;2023-11-22T14:37:19;5.82;;;0.82;;